Saint Helens, United Kingdom
Current Conditions -  °F | °C
As of 3:20 AM on Saturday 29 Nov 2014 (Local Time) from EGGP Reporting Station
Few Clouds Few Clouds  
Wind Chill: 46°   Ceiling: Unl
Heat Index: 48°   Visibility: 6mi
Dew Point: 46°   Wind: 5mph
Humidity: 93%   Direction: 50°NE
Pressure: 29.77"   Gusts: NA
Location:  53.45°N, 2.74°W
Report Text: EGGP 290320Z 05004KT 9999 FEW018 09/08 Q1008
Loading
Personal Weather Stations






























Interactive Weather Map New forecast layout! Learn more

10-Day Weather Forecast

Advertisements
Track Severe Weather on mobile